RWZ015 UUDD-LLBG
Flight info
| Callsign | RWZ015 |
|---|---|
| Flight time | 4h 38m |
| Altitude | 33000 |
| Route | N0450F330 TOGMO M56 ABAGI B105 NIMTA/K0831F340 B105 NATIT DCT MOLED N50 LIDUS G242 ZG DCT ITAKA DCT KUDAS DCT MKL DCT LURIS N37 SARPI UN37 TBN UW706 SIV UA285 MUT UR55 AYT/N0432F350 UM855 TOMBI DCT IDAKU L35 PIKOG L609 ZUKKO |
| Aircraft | T204/M-VGDW/C |
Departure
| Time | 2026-05-07 05:34 |
|---|---|
| Airport | Domodedovo International Airport (UUDD) |
Arrival
| Time | 2026-05-07 10:12 |
|---|---|
| Airport | Ben Gurion International Airport (LLBG) |
| Time | Latitude | Longitude | Altitude | Speed | Heading |
|---|---|---|---|---|---|
| 2026-05-07 05:08 | 55.41057 | 37.89714 | 598 ft | 0 kts | 56° |
| 2026-05-07 05:28 | 55.41057 | 37.89715 | 597 ft | 0 kts | 56° |
| 2026-05-07 05:29 | 55.41069 | 37.89761 | 597 ft | 6 kts | 89° |
| 2026-05-07 05:29 | 55.41029 | 37.89835 | 597 ft | 11 kts | 144° |
| 2026-05-07 05:29 | 55.40959 | 37.89778 | 597 ft | 15 kts | 234° |
| 2026-05-07 05:29 | 55.40884 | 37.89594 | 597 ft | 21 kts | 234° |
| 2026-05-07 05:30 | 55.40786 | 37.89359 | 597 ft | 26 kts | 251° |
| 2026-05-07 05:30 | 55.40862 | 37.89071 | 597 ft | 31 kts | 327° |
| 2026-05-07 05:30 | 55.41057 | 37.88834 | 597 ft | 37 kts | 326° |
| 2026-05-07 05:30 | 55.41285 | 37.88561 | 597 ft | 41 kts | 326° |
| 2026-05-07 05:31 | 55.41534 | 37.88260 | 597 ft | 45 kts | 326° |
| 2026-05-07 05:31 | 55.41804 | 37.87936 | 597 ft | 47 kts | 326° |
| 2026-05-07 05:31 | 55.42062 | 37.87623 | 597 ft | 43 kts | 325° |
| 2026-05-07 05:31 | 55.42189 | 37.87358 | 597 ft | 12 kts | 237° |
| 2026-05-07 05:32 | 55.42159 | 37.87318 | 597 ft | 2 kts | 212° |
| 2026-05-07 05:32 | 55.42139 | 37.87296 | 597 ft | 4 kts | 212° |
| 2026-05-07 05:32 | 55.42098 | 37.87268 | 597 ft | 8 kts | 191° |
| 2026-05-07 05:32 | 55.42035 | 37.87292 | 597 ft | 10 kts | 145° |
| 2026-05-07 05:33 | 55.42013 | 37.87319 | 597 ft | 0 kts | 146° |
| 2026-05-07 05:33 | 55.41996 | 37.87340 | 597 ft | 19 kts | 146° |
| 2026-05-07 05:33 | 55.41681 | 37.87718 | 598 ft | 90 kts | 146° |
| 2026-05-07 05:33 | 55.40979 | 37.88568 | 599 ft | 153 kts | 145° |
| 2026-05-07 05:34 | 55.39981 | 37.89775 | 823 ft | 189 kts | 146° |
| 2026-05-07 05:34 | 55.38891 | 37.91024 | 1356 ft | 187 kts | 154° |
| 2026-05-07 05:34 | 55.37672 | 37.91906 | 1649 ft | 193 kts | 161° |
| 2026-05-07 05:34 | 55.36405 | 37.92695 | 2008 ft | 195 kts | 163° |
| 2026-05-07 05:35 | 55.35101 | 37.93463 | 2297 ft | 203 kts | 165° |
| 2026-05-07 05:35 | 55.33749 | 37.94244 | 2781 ft | 207 kts | 165° |
| 2026-05-07 05:35 | 55.32383 | 37.95041 | 3216 ft | 213 kts | 166° |
| 2026-05-07 05:35 | 55.30916 | 37.95344 | 3632 ft | 213 kts | 192° |
| 2026-05-07 05:36 | 55.29542 | 37.94498 | 4134 ft | 213 kts | 211° |
| 2026-05-07 05:36 | 55.28272 | 37.93129 | 4756 ft | 216 kts | 214° |
| 2026-05-07 05:36 | 55.27041 | 37.91723 | 5483 ft | 214 kts | 216° |
| 2026-05-07 05:36 | 55.25798 | 37.90293 | 6113 ft | 216 kts | 216° |
| 2026-05-07 05:37 | 55.24558 | 37.88868 | 6729 ft | 218 kts | 216° |
| 2026-05-07 05:37 | 55.23224 | 37.87593 | 7299 ft | 224 kts | 199° |
| 2026-05-07 05:37 | 55.21640 | 37.87443 | 7790 ft | 238 kts | 174° |
| 2026-05-07 05:37 | 55.20045 | 37.88495 | 8108 ft | 261 kts | 152° |
| 2026-05-07 05:38 | 55.18594 | 37.90619 | 8435 ft | 279 kts | 140° |
| 2026-05-07 05:38 | 55.17182 | 37.93045 | 8785 ft | 293 kts | 139° |
| 2026-05-07 05:38 | 55.15732 | 37.95583 | 9322 ft | 298 kts | 139° |
| 2026-05-07 05:38 | 55.14272 | 37.98131 | 9908 ft | 301 kts | 139° |
| 2026-05-07 05:39 | 55.12801 | 38.00705 | 10487 ft | 303 kts | 139° |
| 2026-05-07 05:39 | 55.11294 | 38.03337 | 11070 ft | 306 kts | 139° |
| 2026-05-07 05:39 | 55.09797 | 38.05948 | 11642 ft | 308 kts | 139° |
| 2026-05-07 05:39 | 55.08285 | 38.08583 | 12169 ft | 311 kts | 139° |
| 2026-05-07 05:40 | 55.06760 | 38.11232 | 12706 ft | 314 kts | 139° |
| 2026-05-07 05:40 | 55.05219 | 38.13913 | 13226 ft | 316 kts | 139° |
| 2026-05-07 05:40 | 55.03668 | 38.16610 | 13725 ft | 319 kts | 139° |
| 2026-05-07 05:40 | 55.02081 | 38.19364 | 14237 ft | 322 kts | 139° |
| 2026-05-07 05:41 | 55.00509 | 38.22089 | 14748 ft | 323 kts | 139° |
| 2026-05-07 05:41 | 54.98903 | 38.24867 | 15247 ft | 326 kts | 139° |
| 2026-05-07 05:41 | 54.97305 | 38.27625 | 15729 ft | 328 kts | 139° |
| 2026-05-07 05:41 | 54.95694 | 38.30405 | 16209 ft | 330 kts | 138° |
| 2026-05-07 05:42 | 54.94069 | 38.33208 | 16671 ft | 332 kts | 138° |
| 2026-05-07 05:42 | 54.92410 | 38.36069 | 17144 ft | 334 kts | 138° |
| 2026-05-07 05:42 | 54.90766 | 38.38898 | 17595 ft | 336 kts | 138° |
| 2026-05-07 05:42 | 54.89103 | 38.41757 | 18043 ft | 338 kts | 138° |
| 2026-05-07 05:43 | 54.87450 | 38.44596 | 18474 ft | 340 kts | 138° |
| 2026-05-07 05:43 | 54.85767 | 38.47487 | 18896 ft | 343 kts | 138° |
| 2026-05-07 05:43 | 54.84057 | 38.50418 | 19329 ft | 345 kts | 138° |
| 2026-05-07 05:43 | 54.82359 | 38.53321 | 19738 ft | 347 kts | 138° |
| 2026-05-07 05:44 | 54.80635 | 38.56269 | 20165 ft | 349 kts | 138° |
| 2026-05-07 05:44 | 54.78930 | 38.59179 | 20577 ft | 350 kts | 137° |
| 2026-05-07 05:44 | 54.77182 | 38.62181 | 20980 ft | 352 kts | 137° |
| 2026-05-07 05:44 | 54.75291 | 38.64816 | 21330 ft | 351 kts | 150° |
| 2026-05-07 05:45 | 54.73233 | 38.66976 | 21768 ft | 351 kts | 152° |
| 2026-05-07 05:45 | 54.71115 | 38.69155 | 22142 ft | 353 kts | 152° |
| 2026-05-07 05:45 | 54.69012 | 38.71318 | 22494 ft | 355 kts | 152° |
| 2026-05-07 05:45 | 54.66866 | 38.73538 | 22601 ft | 365 kts | 152° |
| 2026-05-07 05:46 | 54.64664 | 38.75818 | 22641 ft | 376 kts | 152° |
| 2026-05-07 05:46 | 54.62425 | 38.78137 | 22732 ft | 385 kts | 152° |
| 2026-05-07 05:46 | 54.60085 | 38.80562 | 22809 ft | 394 kts | 151° |
| 2026-05-07 05:46 | 54.57726 | 38.83005 | 22882 ft | 402 kts | 151° |
| 2026-05-07 05:47 | 54.55311 | 38.85500 | 22951 ft | 410 kts | 151° |
| 2026-05-07 05:47 | 54.52854 | 38.88040 | 23017 ft | 418 kts | 151° |
| 2026-05-07 05:47 | 54.50361 | 38.90615 | 23078 ft | 425 kts | 151° |
| 2026-05-07 05:47 | 54.47826 | 38.93231 | 23178 ft | 430 kts | 151° |
| 2026-05-07 05:48 | 54.45262 | 38.95875 | 23455 ft | 431 kts | 151° |
| 2026-05-07 05:48 | 54.42706 | 38.98556 | 23803 ft | 431 kts | 148° |
| 2026-05-07 05:48 | 54.40457 | 39.01961 | 24037 ft | 436 kts | 131° |
| 2026-05-07 05:48 | 54.38754 | 39.06204 | 24480 ft | 434 kts | 122° |
| 2026-05-07 05:49 | 54.37272 | 39.10718 | 24852 ft | 433 kts | 118° |
| 2026-05-07 05:49 | 54.35969 | 39.15319 | 25145 ft | 434 kts | 115° |
| 2026-05-07 05:49 | 54.34722 | 39.20073 | 25498 ft | 434 kts | 114° |
| 2026-05-07 05:49 | 54.33550 | 39.24754 | 25835 ft | 433 kts | 113° |
| 2026-05-07 05:50 | 54.32374 | 39.29519 | 26171 ft | 433 kts | 113° |
| 2026-05-07 05:50 | 54.31218 | 39.34182 | 26515 ft | 432 kts | 113° |
| 2026-05-07 05:50 | 54.30042 | 39.38911 | 26854 ft | 431 kts | 113° |
| 2026-05-07 05:50 | 54.28879 | 39.43582 | 27161 ft | 431 kts | 113° |
| 2026-05-07 05:51 | 54.27698 | 39.48327 | 27513 ft | 429 kts | 113° |
| 2026-05-07 05:51 | 54.26538 | 39.52992 | 27879 ft | 428 kts | 113° |
| 2026-05-07 05:51 | 54.25383 | 39.57644 | 28221 ft | 427 kts | 112° |
| 2026-05-07 05:51 | 54.24240 | 39.62250 | 28571 ft | 425 kts | 112° |
| 2026-05-07 05:52 | 54.23081 | 39.66917 | 28905 ft | 424 kts | 113° |
| 2026-05-07 05:52 | 54.21944 | 39.71506 | 29240 ft | 423 kts | 113° |
| 2026-05-07 05:52 | 54.20798 | 39.76144 | 29561 ft | 422 kts | 113° |
| 2026-05-07 05:52 | 54.19669 | 39.80720 | 29897 ft | 421 kts | 113° |
| 2026-05-07 05:53 | 54.18547 | 39.85277 | 30214 ft | 420 kts | 113° |
| 2026-05-07 05:53 | 54.17414 | 39.89884 | 30549 ft | 419 kts | 112° |
| 2026-05-07 05:53 | 54.16304 | 39.94404 | 30885 ft | 417 kts | 112° |
| 2026-05-07 05:53 | 54.15182 | 39.98980 | 31170 ft | 416 kts | 112° |
| 2026-05-07 05:54 | 54.14072 | 40.03523 | 31471 ft | 415 kts | 112° |
| 2026-05-07 05:54 | 54.12960 | 40.08076 | 31736 ft | 415 kts | 112° |
| 2026-05-07 05:54 | 54.11866 | 40.12563 | 32016 ft | 413 kts | 111° |
| 2026-05-07 05:54 | 54.10959 | 40.17191 | 32273 ft | 413 kts | 106° |
| 2026-05-07 05:55 | 54.10152 | 40.21902 | 32518 ft | 413 kts | 106° |
| 2026-05-07 05:55 | 54.08508 | 40.31377 | 32521 ft | 425 kts | 106° |
| 2026-05-07 05:56 | 54.06781 | 40.41116 | 32561 ft | 435 kts | 107° |
| 2026-05-07 05:56 | 54.05018 | 40.51006 | 32585 ft | 445 kts | 106° |
| 2026-05-07 05:57 | 54.03217 | 40.61161 | 32610 ft | 454 kts | 106° |
| 2026-05-07 05:57 | 54.01402 | 40.71460 | 32917 ft | 456 kts | 107° |
| 2026-05-07 05:58 | 53.99576 | 40.81842 | 32939 ft | 459 kts | 107° |
| 2026-05-07 05:58 | 53.97774 | 40.92141 | 32967 ft | 457 kts | 107° |
| 2026-05-07 05:59 | 53.95981 | 41.02420 | 32979 ft | 456 kts | 107° |
| 2026-05-07 05:59 | 53.94246 | 41.12781 | 32981 ft | 455 kts | 105° |
| 2026-05-07 06:00 | 53.92547 | 41.22993 | 32981 ft | 454 kts | 105° |
| 2026-05-07 06:00 | 53.90820 | 41.33304 | 32979 ft | 454 kts | 105° |
| 2026-05-07 06:01 | 53.89104 | 41.43571 | 32976 ft | 453 kts | 105° |
| 2026-05-07 06:01 | 53.87402 | 41.53788 | 32977 ft | 453 kts | 105° |
| 2026-05-07 06:02 | 53.85722 | 41.63967 | 32978 ft | 452 kts | 105° |
| 2026-05-07 06:02 | 53.84040 | 41.74215 | 32975 ft | 451 kts | 105° |
| 2026-05-07 06:03 | 53.82307 | 41.84350 | 32982 ft | 451 kts | 107° |
| 2026-05-07 06:03 | 53.80512 | 41.94501 | 32988 ft | 452 kts | 107° |
| 2026-05-07 06:04 | 53.78705 | 42.04670 | 32991 ft | 452 kts | 107° |
| 2026-05-07 06:04 | 53.76915 | 42.14766 | 32994 ft | 452 kts | 107° |
| 2026-05-07 06:05 | 53.75134 | 42.24887 | 32995 ft | 451 kts | 107° |
| 2026-05-07 06:05 | 53.73354 | 42.35036 | 32996 ft | 452 kts | 106° |
| 2026-05-07 06:06 | 53.71587 | 42.45160 | 32994 ft | 451 kts | 106° |
| 2026-05-07 06:06 | 53.69772 | 42.55224 | 32976 ft | 452 kts | 111° |
| 2026-05-07 06:06 | 53.68219 | 42.59851 | 32950 ft | 452 kts | 126° |
| 2026-05-07 06:07 | 53.66210 | 42.63858 | 33066 ft | 452 kts | 130° |
| 2026-05-07 06:07 | 53.64046 | 42.67688 | 32939 ft | 455 kts | 137° |
| 2026-05-07 06:07 | 53.61540 | 42.70930 | 32981 ft | 454 kts | 147° |
| 2026-05-07 06:08 | 53.55946 | 42.75868 | 32961 ft | 457 kts | 154° |
| 2026-05-07 06:08 | 53.50182 | 42.80191 | 32971 ft | 458 kts | 156° |
| 2026-05-07 06:09 | 53.44356 | 42.84404 | 32983 ft | 457 kts | 156° |
| 2026-05-07 06:09 | 53.38521 | 42.88588 | 32986 ft | 456 kts | 156° |
| 2026-05-07 06:10 | 53.32722 | 42.92742 | 32984 ft | 456 kts | 156° |
| 2026-05-07 06:10 | 53.26908 | 42.96908 | 32982 ft | 457 kts | 156° |
| 2026-05-07 06:11 | 53.21085 | 43.01079 | 32982 ft | 457 kts | 156° |
| 2026-05-07 06:11 | 53.15271 | 43.05243 | 32980 ft | 456 kts | 156° |
| 2026-05-07 06:12 | 53.09470 | 43.09460 | 32980 ft | 457 kts | 155° |
| 2026-05-07 06:12 | 53.03649 | 43.13660 | 32981 ft | 458 kts | 156° |
| 2026-05-07 06:13 | 52.97813 | 43.17813 | 32979 ft | 457 kts | 156° |
| 2026-05-07 06:13 | 52.92944 | 43.21261 | 32981 ft | 457 kts | 156° |
| 2026-05-07 06:14 | 52.86160 | 43.26058 | 32979 ft | 457 kts | 156° |
| 2026-05-07 06:14 | 52.80339 | 43.30174 | 32980 ft | 458 kts | 155° |
| 2026-05-07 06:15 | 52.74475 | 43.34317 | 32979 ft | 459 kts | 155° |
| 2026-05-07 06:15 | 52.68639 | 43.38450 | 32977 ft | 461 kts | 155° |
| 2026-05-07 06:16 | 52.62748 | 43.42619 | 32977 ft | 460 kts | 155° |
| 2026-05-07 06:16 | 52.56899 | 43.46761 | 32977 ft | 460 kts | 155° |
| 2026-05-07 06:17 | 52.51036 | 43.50918 | 32978 ft | 460 kts | 155° |
| 2026-05-07 06:17 | 52.45190 | 43.55058 | 32980 ft | 460 kts | 155° |
| 2026-05-07 06:18 | 52.39358 | 43.59190 | 32982 ft | 461 kts | 155° |
| 2026-05-07 06:18 | 52.33483 | 43.63349 | 32983 ft | 462 kts | 154° |
| 2026-05-07 06:19 | 52.27578 | 43.67538 | 32980 ft | 461 kts | 155° |
| 2026-05-07 06:19 | 52.21713 | 43.71704 | 32977 ft | 461 kts | 155° |
| 2026-05-07 06:20 | 52.15852 | 43.75861 | 32974 ft | 462 kts | 155° |
| 2026-05-07 06:20 | 52.10016 | 43.80007 | 32974 ft | 461 kts | 155° |
| 2026-05-07 06:21 | 52.04110 | 43.84189 | 32972 ft | 462 kts | 154° |
| 2026-05-07 06:21 | 51.98267 | 43.88332 | 32967 ft | 462 kts | 154° |
| 2026-05-07 06:22 | 51.92401 | 43.92503 | 32967 ft | 462 kts | 154° |
| 2026-05-07 06:22 | 51.83571 | 43.98787 | 32961 ft | 463 kts | 154° |
| 2026-05-07 06:23 | 51.77670 | 44.02982 | 32958 ft | 464 kts | 154° |
| 2026-05-07 06:23 | 51.71809 | 44.07148 | 32955 ft | 464 kts | 154° |
| 2026-05-07 06:24 | 51.65945 | 44.11319 | 32955 ft | 464 kts | 154° |
| 2026-05-07 06:24 | 51.60017 | 44.15534 | 32950 ft | 465 kts | 154° |
| 2026-05-07 06:25 | 51.54121 | 44.19726 | 32950 ft | 465 kts | 154° |
| 2026-05-07 06:25 | 51.48254 | 44.23902 | 32949 ft | 465 kts | 154° |
| 2026-05-07 06:26 | 51.42362 | 44.28100 | 32947 ft | 466 kts | 154° |
| 2026-05-07 06:26 | 51.36451 | 44.32306 | 32948 ft | 465 kts | 154° |
| 2026-05-07 06:27 | 51.30552 | 44.36504 | 32945 ft | 466 kts | 154° |
| 2026-05-07 06:27 | 51.24659 | 44.40703 | 32944 ft | 466 kts | 154° |
| 2026-05-07 06:28 | 51.18705 | 44.44805 | 32920 ft | 467 kts | 161° |
| 2026-05-07 06:28 | 51.15543 | 44.45760 | 32920 ft | 468 kts | 175° |
| 2026-05-07 06:28 | 51.12285 | 44.45929 | 33020 ft | 469 kts | 177° |
| 2026-05-07 06:29 | 51.09030 | 44.45972 | 32908 ft | 471 kts | 180° |
| 2026-05-07 06:29 | 51.05756 | 44.45834 | 32962 ft | 469 kts | 181° |
| 2026-05-07 06:29 | 50.99278 | 44.45359 | 32941 ft | 470 kts | 182° |
| 2026-05-07 06:30 | 50.92746 | 44.44782 | 32944 ft | 469 kts | 182° |
| 2026-05-07 06:30 | 50.86253 | 44.44192 | 32947 ft | 470 kts | 182° |
| 2026-05-07 06:31 | 50.79736 | 44.43603 | 32954 ft | 469 kts | 182° |
| 2026-05-07 06:31 | 50.73272 | 44.43016 | 32957 ft | 469 kts | 182° |
| 2026-05-07 06:32 | 50.66769 | 44.42424 | 32953 ft | 469 kts | 182° |
| 2026-05-07 06:32 | 50.60277 | 44.41833 | 32953 ft | 470 kts | 182° |
| 2026-05-07 06:33 | 50.53775 | 44.41241 | 32952 ft | 469 kts | 182° |
| 2026-05-07 06:33 | 50.47284 | 44.40651 | 32954 ft | 469 kts | 182° |
| 2026-05-07 06:34 | 50.40794 | 44.40059 | 32954 ft | 469 kts | 182° |
| 2026-05-07 06:34 | 50.34270 | 44.39466 | 32956 ft | 469 kts | 182° |
| 2026-05-07 06:35 | 50.27781 | 44.38875 | 32958 ft | 469 kts | 182° |
| 2026-05-07 06:35 | 50.21318 | 44.38287 | 32956 ft | 469 kts | 182° |
| 2026-05-07 06:36 | 50.14826 | 44.37697 | 32956 ft | 469 kts | 182° |
| 2026-05-07 06:36 | 50.08326 | 44.37106 | 32955 ft | 469 kts | 182° |
| 2026-05-07 06:37 | 50.01857 | 44.36515 | 32954 ft | 468 kts | 182° |
| 2026-05-07 06:37 | 49.95369 | 44.35922 | 32951 ft | 468 kts | 182° |
| 2026-05-07 06:38 | 49.88864 | 44.35332 | 32945 ft | 470 kts | 182° |
| 2026-05-07 06:38 | 49.82362 | 44.34740 | 32948 ft | 470 kts | 182° |
| 2026-05-07 06:39 | 49.75820 | 44.34143 | 32944 ft | 470 kts | 182° |
| 2026-05-07 06:39 | 49.69329 | 44.33555 | 32946 ft | 470 kts | 182° |
| 2026-05-07 06:40 | 49.62828 | 44.32963 | 32951 ft | 470 kts | 182° |
| 2026-05-07 06:40 | 49.56404 | 44.33668 | 32930 ft | 467 kts | 161° |
| 2026-05-07 06:41 | 49.50245 | 44.36853 | 32938 ft | 467 kts | 157° |
| 2026-05-07 06:41 | 49.44237 | 44.40429 | 32951 ft | 466 kts | 156° |
| 2026-05-07 06:42 | 49.38250 | 44.44144 | 32946 ft | 466 kts | 155° |
| 2026-05-07 06:42 | 49.32237 | 44.47915 | 32945 ft | 465 kts | 155° |
| 2026-05-07 06:43 | 49.26259 | 44.51658 | 32947 ft | 465 kts | 155° |
| 2026-05-07 06:43 | 49.20308 | 44.55396 | 32943 ft | 465 kts | 155° |
| 2026-05-07 06:44 | 49.14336 | 44.59142 | 32943 ft | 465 kts | 155° |
| 2026-05-07 06:44 | 49.08373 | 44.62884 | 32941 ft | 464 kts | 154° |
| 2026-05-07 06:45 | 49.02394 | 44.66651 | 32945 ft | 465 kts | 155° |
| 2026-05-07 06:45 | 48.96463 | 44.70383 | 32938 ft | 465 kts | 155° |
| 2026-05-07 06:46 | 48.90497 | 44.74130 | 32939 ft | 465 kts | 155° |
| 2026-05-07 06:46 | 48.84518 | 44.77887 | 32934 ft | 464 kts | 155° |
| 2026-05-07 06:47 | 48.78876 | 44.82426 | 32958 ft | 462 kts | 148° |
| 2026-05-07 06:47 | 48.73253 | 44.87172 | 32930 ft | 463 kts | 148° |
| 2026-05-07 06:48 | 48.67642 | 44.91837 | 32932 ft | 462 kts | 148° |
| 2026-05-07 06:48 | 48.62019 | 44.96478 | 32923 ft | 462 kts | 148° |
| 2026-05-07 06:49 | 48.56354 | 45.01145 | 32923 ft | 463 kts | 148° |
| 2026-05-07 06:49 | 48.50745 | 45.05770 | 32920 ft | 463 kts | 148° |
| 2026-05-07 06:50 | 48.45121 | 45.10415 | 32919 ft | 463 kts | 148° |
| 2026-05-07 06:50 | 48.39466 | 45.15082 | 32927 ft | 463 kts | 148° |
| 2026-05-07 06:51 | 48.33866 | 45.19703 | 32929 ft | 462 kts | 148° |
| 2026-05-07 06:51 | 48.28220 | 45.24362 | 32936 ft | 462 kts | 148° |
| 2026-05-07 06:52 | 48.22613 | 45.28997 | 32935 ft | 463 kts | 148° |
| 2026-05-07 06:52 | 48.16960 | 45.33668 | 32938 ft | 462 kts | 148° |
| 2026-05-07 06:53 | 48.11379 | 45.38286 | 32934 ft | 463 kts | 148° |
| 2026-05-07 06:53 | 48.05751 | 45.42942 | 32937 ft | 463 kts | 148° |
| 2026-05-07 06:54 | 48.00140 | 45.47581 | 32940 ft | 462 kts | 147° |
| 2026-05-07 06:54 | 47.94514 | 45.52235 | 32942 ft | 462 kts | 147° |
| 2026-05-07 06:55 | 47.88916 | 45.56873 | 32930 ft | 462 kts | 147° |
| 2026-05-07 06:55 | 47.83337 | 45.61494 | 32932 ft | 463 kts | 147° |
| 2026-05-07 06:56 | 47.77701 | 45.66169 | 32922 ft | 463 kts | 148° |
| 2026-05-07 06:56 | 47.72079 | 45.70827 | 32913 ft | 464 kts | 148° |
| 2026-05-07 06:57 | 47.66490 | 45.75460 | 32926 ft | 463 kts | 148° |
| 2026-05-07 06:57 | 47.60884 | 45.80102 | 32934 ft | 463 kts | 148° |
| 2026-05-07 06:58 | 47.55536 | 45.85371 | 32946 ft | 460 kts | 141° |
| 2026-05-07 06:58 | 47.50090 | 45.90270 | 32862 ft | 468 kts | 158° |
| 2026-05-07 06:59 | 47.46911 | 45.91392 | 32971 ft | 471 kts | 170° |
| 2026-05-07 06:59 | 47.43606 | 45.91502 | 32908 ft | 476 kts | 183° |
| 2026-05-07 06:59 | 47.40390 | 45.90578 | 32956 ft | 478 kts | 194° |
| 2026-05-07 06:59 | 47.37214 | 45.89161 | 32967 ft | 479 kts | 196° |
| 2026-05-07 07:00 | 47.30849 | 45.86215 | 32960 ft | 478 kts | 196° |
| 2026-05-07 07:00 | 47.24542 | 45.83286 | 32959 ft | 478 kts | 196° |
| 2026-05-07 07:01 | 47.18224 | 45.80357 | 32933 ft | 479 kts | 196° |
| 2026-05-07 07:01 | 47.11864 | 45.77416 | 32943 ft | 478 kts | 196° |
| 2026-05-07 07:02 | 47.05556 | 45.74508 | 32942 ft | 478 kts | 196° |
| 2026-05-07 07:02 | 46.99226 | 45.71602 | 32942 ft | 478 kts | 196° |
| 2026-05-07 07:03 | 46.92893 | 45.68697 | 32937 ft | 479 kts | 196° |
| 2026-05-07 07:03 | 46.86538 | 45.65789 | 32950 ft | 478 kts | 196° |
| 2026-05-07 07:04 | 46.80185 | 45.62883 | 32948 ft | 479 kts | 196° |
| 2026-05-07 07:04 | 46.73846 | 45.59992 | 32955 ft | 478 kts | 196° |
| 2026-05-07 07:05 | 46.67518 | 45.57114 | 32965 ft | 478 kts | 196° |
| 2026-05-07 07:05 | 46.61181 | 45.54242 | 32967 ft | 478 kts | 196° |
| 2026-05-07 07:06 | 46.54855 | 45.51384 | 32971 ft | 478 kts | 196° |
| 2026-05-07 07:06 | 46.48537 | 45.48535 | 32979 ft | 478 kts | 196° |
| 2026-05-07 07:07 | 46.42182 | 45.45676 | 32975 ft | 478 kts | 196° |
| 2026-05-07 07:07 | 46.35876 | 45.42844 | 32981 ft | 478 kts | 196° |
| 2026-05-07 07:08 | 46.29529 | 45.39999 | 33001 ft | 478 kts | 196° |
| 2026-05-07 07:08 | 46.23206 | 45.37175 | 32999 ft | 477 kts | 196° |
| 2026-05-07 07:09 | 46.16872 | 45.34350 | 33003 ft | 478 kts | 195° |
| 2026-05-07 07:09 | 46.10547 | 45.31536 | 33007 ft | 477 kts | 195° |
| 2026-05-07 07:10 | 46.04203 | 45.28722 | 33022 ft | 478 kts | 195° |
| 2026-05-07 07:10 | 45.97872 | 45.25918 | 33025 ft | 478 kts | 195° |
| 2026-05-07 07:11 | 45.91547 | 45.23128 | 33024 ft | 476 kts | 195° |
| 2026-05-07 07:11 | 45.85223 | 45.20343 | 33025 ft | 475 kts | 195° |
| 2026-05-07 07:12 | 45.78897 | 45.17562 | 33023 ft | 476 kts | 195° |
| 2026-05-07 07:12 | 45.72610 | 45.14806 | 33032 ft | 475 kts | 195° |
| 2026-05-07 07:13 | 45.66314 | 45.12052 | 33034 ft | 475 kts | 195° |
| 2026-05-07 07:13 | 45.60014 | 45.09302 | 33043 ft | 475 kts | 195° |
| 2026-05-07 07:14 | 45.53720 | 45.06560 | 33048 ft | 472 kts | 195° |
| 2026-05-07 07:14 | 45.47428 | 45.03830 | 33045 ft | 472 kts | 195° |
| 2026-05-07 07:15 | 45.41165 | 45.01113 | 33052 ft | 473 kts | 195° |
| 2026-05-07 07:15 | 45.34898 | 44.98405 | 33053 ft | 473 kts | 194° |
| 2026-05-07 07:16 | 45.28634 | 44.95702 | 33061 ft | 472 kts | 195° |
| 2026-05-07 07:16 | 45.22383 | 44.93013 | 33065 ft | 471 kts | 194° |
| 2026-05-07 07:17 | 45.16089 | 44.90311 | 33061 ft | 471 kts | 195° |
| 2026-05-07 07:17 | 45.09851 | 44.87637 | 33064 ft | 469 kts | 194° |
| 2026-05-07 07:18 | 45.03618 | 44.84972 | 33076 ft | 470 kts | 194° |
| 2026-05-07 07:18 | 44.97385 | 44.82311 | 33069 ft | 470 kts | 195° |
| 2026-05-07 07:19 | 44.91122 | 44.79652 | 33072 ft | 468 kts | 194° |
| 2026-05-07 07:19 | 44.84900 | 44.77012 | 33076 ft | 469 kts | 195° |
| 2026-05-07 07:20 | 44.78694 | 44.74382 | 33078 ft | 467 kts | 195° |
| 2026-05-07 07:20 | 44.72487 | 44.71761 | 33089 ft | 466 kts | 195° |
| 2026-05-07 07:21 | 44.66278 | 44.69135 | 33059 ft | 465 kts | 195° |
| 2026-05-07 07:21 | 44.60117 | 44.66546 | 33077 ft | 465 kts | 195° |
| 2026-05-07 07:22 | 44.53914 | 44.63947 | 33096 ft | 465 kts | 195° |
| 2026-05-07 07:22 | 44.47768 | 44.61378 | 33095 ft | 463 kts | 195° |
| 2026-05-07 07:23 | 44.41588 | 44.58794 | 33102 ft | 463 kts | 195° |
| 2026-05-07 07:23 | 44.35435 | 44.56227 | 33094 ft | 462 kts | 195° |
| 2026-05-07 07:24 | 44.29263 | 44.53662 | 33095 ft | 462 kts | 195° |
| 2026-05-07 07:24 | 44.23127 | 44.51115 | 33095 ft | 462 kts | 195° |
| 2026-05-07 07:25 | 44.13893 | 44.47298 | 33101 ft | 461 kts | 195° |
| 2026-05-07 07:26 | 44.07795 | 44.44784 | 33102 ft | 461 kts | 195° |
| 2026-05-07 07:26 | 44.01612 | 44.42237 | 33106 ft | 462 kts | 196° |
| 2026-05-07 07:27 | 43.95489 | 44.39715 | 33099 ft | 462 kts | 195° |
| 2026-05-07 07:27 | 43.89347 | 44.37185 | 33129 ft | 461 kts | 195° |
| 2026-05-07 07:28 | 43.83223 | 44.34668 | 33123 ft | 460 kts | 195° |
| 2026-05-07 07:28 | 43.77064 | 44.32147 | 33117 ft | 459 kts | 195° |
| 2026-05-07 07:29 | 43.71001 | 44.29675 | 33131 ft | 458 kts | 195° |
| 2026-05-07 07:29 | 43.64893 | 44.27185 | 33139 ft | 458 kts | 195° |
| 2026-05-07 07:30 | 43.58812 | 44.24712 | 33136 ft | 455 kts | 195° |
| 2026-05-07 07:30 | 43.52766 | 44.22266 | 33133 ft | 453 kts | 195° |
| 2026-05-07 07:31 | 43.46711 | 44.19815 | 33135 ft | 452 kts | 195° |
| 2026-05-07 07:31 | 43.40716 | 44.17395 | 33133 ft | 452 kts | 195° |
| 2026-05-07 07:32 | 43.34704 | 44.14981 | 33138 ft | 451 kts | 196° |
| 2026-05-07 07:32 | 43.28657 | 44.12552 | 33143 ft | 451 kts | 196° |
| 2026-05-07 07:33 | 43.22649 | 44.10136 | 33155 ft | 451 kts | 196° |
| 2026-05-07 07:33 | 43.16625 | 44.07715 | 33157 ft | 452 kts | 196° |
| 2026-05-07 07:34 | 43.10621 | 44.05308 | 33157 ft | 453 kts | 196° |
| 2026-05-07 07:34 | 43.04595 | 44.02898 | 33160 ft | 451 kts | 197° |
| 2026-05-07 07:35 | 42.98596 | 44.00505 | 33159 ft | 450 kts | 197° |
| 2026-05-07 07:35 | 42.92559 | 43.98092 | 33163 ft | 451 kts | 197° |
| 2026-05-07 07:36 | 42.86579 | 43.95705 | 33146 ft | 450 kts | 197° |
| 2026-05-07 07:36 | 42.80577 | 43.93309 | 33114 ft | 450 kts | 197° |
| 2026-05-07 07:37 | 42.74556 | 43.90914 | 33117 ft | 449 kts | 197° |
| 2026-05-07 07:37 | 42.68617 | 43.88560 | 33111 ft | 447 kts | 197° |
| 2026-05-07 07:38 | 42.62613 | 43.86184 | 33111 ft | 448 kts | 197° |
| 2026-05-07 07:38 | 42.56666 | 43.83835 | 33113 ft | 448 kts | 197° |
| 2026-05-07 07:39 | 42.50699 | 43.81480 | 33117 ft | 445 kts | 197° |
| 2026-05-07 07:39 | 42.44759 | 43.79135 | 33121 ft | 444 kts | 197° |
| 2026-05-07 07:40 | 42.38855 | 43.76826 | 33131 ft | 441 kts | 197° |
| 2026-05-07 07:40 | 42.32962 | 43.74510 | 33136 ft | 440 kts | 198° |
| 2026-05-07 07:41 | 42.27093 | 43.72194 | 33147 ft | 441 kts | 198° |
| 2026-05-07 07:41 | 42.21219 | 43.69876 | 33144 ft | 441 kts | 198° |
| 2026-05-07 07:42 | 42.15502 | 43.67014 | 33096 ft | 439 kts | 213° |
| 2026-05-07 07:42 | 42.10892 | 43.61736 | 33168 ft | 438 kts | 226° |
| 2026-05-07 07:43 | 42.07384 | 43.55143 | 33157 ft | 438 kts | 243° |
| 2026-05-07 07:43 | 42.05121 | 43.47527 | 33142 ft | 440 kts | 250° |
| 2026-05-07 07:44 | 42.03195 | 43.39780 | 33155 ft | 441 kts | 251° |
| 2026-05-07 07:44 | 42.01330 | 43.31876 | 33154 ft | 442 kts | 251° |
| 2026-05-07 07:45 | 41.99503 | 43.24004 | 33155 ft | 443 kts | 251° |
| 2026-05-07 07:45 | 41.97695 | 43.16161 | 33145 ft | 441 kts | 251° |
| 2026-05-07 07:46 | 41.95885 | 43.08285 | 33142 ft | 442 kts | 252° |
| 2026-05-07 07:46 | 41.94087 | 43.00428 | 33145 ft | 441 kts | 252° |
| 2026-05-07 07:47 | 41.92297 | 42.92583 | 33137 ft | 441 kts | 252° |
| 2026-05-07 07:47 | 41.90521 | 42.84772 | 33143 ft | 441 kts | 252° |
| 2026-05-07 07:48 | 41.88645 | 42.76946 | 33134 ft | 443 kts | 251° |
| 2026-05-07 07:48 | 41.86713 | 42.69100 | 33130 ft | 444 kts | 251° |
| 2026-05-07 07:49 | 41.84780 | 42.61255 | 33145 ft | 443 kts | 251° |
| 2026-05-07 07:49 | 41.82859 | 42.53456 | 33144 ft | 445 kts | 251° |
| 2026-05-07 07:50 | 41.80939 | 42.45622 | 33146 ft | 443 kts | 251° |
| 2026-05-07 07:50 | 41.79024 | 42.37796 | 33142 ft | 446 kts | 251° |
| 2026-05-07 07:51 | 41.77094 | 42.29900 | 33147 ft | 447 kts | 251° |
| 2026-05-07 07:51 | 41.75170 | 42.21981 | 33154 ft | 446 kts | 251° |
| 2026-05-07 07:52 | 41.73275 | 42.14170 | 33156 ft | 446 kts | 251° |
| 2026-05-07 07:52 | 41.71342 | 42.06240 | 33154 ft | 449 kts | 251° |
| 2026-05-07 07:53 | 41.69373 | 41.98361 | 33169 ft | 448 kts | 251° |
| 2026-05-07 07:53 | 41.67389 | 41.90478 | 33178 ft | 448 kts | 251° |
| 2026-05-07 07:54 | 41.65414 | 41.82612 | 33311 ft | 446 kts | 251° |
| 2026-05-07 07:54 | 41.63451 | 41.74775 | 33503 ft | 445 kts | 251° |
| 2026-05-07 07:55 | 41.61514 | 41.67004 | 33692 ft | 444 kts | 251° |
| 2026-05-07 07:55 | 41.60537 | 41.63089 | 33804 ft | 444 kts | 251° |
| 2026-05-07 07:55 | 41.59489 | 41.59218 | 33902 ft | 443 kts | 247° |
| 2026-05-07 07:55 | 41.58269 | 41.55438 | 34020 ft | 443 kts | 247° |
| 2026-05-07 07:56 | 41.57040 | 41.51637 | 34136 ft | 447 kts | 246° |
| 2026-05-07 07:56 | 41.54582 | 41.44010 | 34167 ft | 451 kts | 247° |
| 2026-05-07 07:57 | 41.52084 | 41.36373 | 34182 ft | 451 kts | 247° |
| 2026-05-07 07:57 | 41.49581 | 41.28722 | 34177 ft | 450 kts | 246° |
| 2026-05-07 07:58 | 41.47093 | 41.21087 | 34174 ft | 450 kts | 246° |
| 2026-05-07 07:58 | 41.44620 | 41.13508 | 34170 ft | 450 kts | 246° |
| 2026-05-07 07:59 | 41.42106 | 41.05887 | 34175 ft | 451 kts | 246° |
| 2026-05-07 07:59 | 41.39545 | 40.98228 | 34168 ft | 451 kts | 246° |
| 2026-05-07 08:00 | 41.36999 | 40.90643 | 34176 ft | 451 kts | 246° |
| 2026-05-07 08:00 | 41.34463 | 40.83069 | 34174 ft | 450 kts | 246° |
| 2026-05-07 08:01 | 41.31920 | 40.75460 | 34175 ft | 450 kts | 246° |
| 2026-05-07 08:01 | 41.29404 | 40.67917 | 34179 ft | 451 kts | 247° |
| 2026-05-07 08:02 | 41.26859 | 40.60262 | 34188 ft | 452 kts | 247° |
| 2026-05-07 08:02 | 41.24342 | 40.52665 | 34176 ft | 452 kts | 247° |
| 2026-05-07 08:03 | 41.21813 | 40.45043 | 34184 ft | 452 kts | 247° |
| 2026-05-07 08:03 | 41.19279 | 40.37439 | 34179 ft | 451 kts | 246° |
| 2026-05-07 08:04 | 41.16703 | 40.29841 | 34183 ft | 452 kts | 246° |
| 2026-05-07 08:04 | 41.14137 | 40.22274 | 34179 ft | 454 kts | 246° |
| 2026-05-07 08:05 | 41.11543 | 40.14629 | 34183 ft | 453 kts | 246° |
| 2026-05-07 08:05 | 41.08952 | 40.07072 | 34190 ft | 453 kts | 246° |
| 2026-05-07 08:06 | 41.06346 | 39.99482 | 34184 ft | 454 kts | 246° |
| 2026-05-07 08:06 | 41.03740 | 39.91890 | 34192 ft | 455 kts | 246° |
| 2026-05-07 08:07 | 41.01146 | 39.84316 | 34189 ft | 454 kts | 246° |
| 2026-05-07 08:07 | 40.98470 | 39.76753 | 34187 ft | 455 kts | 243° |
| 2026-05-07 08:08 | 40.95502 | 39.69355 | 34186 ft | 455 kts | 243° |
| 2026-05-07 08:08 | 40.92553 | 39.62024 | 34190 ft | 455 kts | 243° |
| 2026-05-07 08:09 | 40.89601 | 39.54661 | 34182 ft | 455 kts | 243° |
| 2026-05-07 08:09 | 40.86643 | 39.47268 | 34176 ft | 454 kts | 243° |
| 2026-05-07 08:10 | 40.83691 | 39.39875 | 34169 ft | 456 kts | 244° |
| 2026-05-07 08:10 | 40.80755 | 39.32508 | 34176 ft | 456 kts | 243° |
| 2026-05-07 08:11 | 40.77811 | 39.25107 | 34171 ft | 455 kts | 243° |
| 2026-05-07 08:11 | 40.74883 | 39.17729 | 34175 ft | 454 kts | 243° |
| 2026-05-07 08:12 | 40.71959 | 39.10359 | 34170 ft | 455 kts | 243° |
| 2026-05-07 08:12 | 40.69043 | 39.02996 | 34177 ft | 455 kts | 244° |
| 2026-05-07 08:13 | 40.66132 | 38.95641 | 34179 ft | 456 kts | 244° |
| 2026-05-07 08:13 | 40.63198 | 38.88237 | 34181 ft | 457 kts | 243° |
| 2026-05-07 08:14 | 40.60194 | 38.80873 | 34178 ft | 456 kts | 243° |
| 2026-05-07 08:14 | 40.57206 | 38.73563 | 34172 ft | 456 kts | 243° |
| 2026-05-07 08:15 | 40.54217 | 38.66239 | 34172 ft | 455 kts | 243° |
| 2026-05-07 08:15 | 40.51231 | 38.58908 | 34163 ft | 455 kts | 243° |
| 2026-05-07 08:16 | 40.48175 | 38.51663 | 34160 ft | 456 kts | 242° |
| 2026-05-07 08:16 | 40.45064 | 38.44461 | 34162 ft | 455 kts | 242° |
| 2026-05-07 08:17 | 40.41956 | 38.37245 | 34164 ft | 456 kts | 243° |
| 2026-05-07 08:17 | 40.38846 | 38.30019 | 34172 ft | 456 kts | 242° |
| 2026-05-07 08:18 | 40.35831 | 38.22717 | 34185 ft | 456 kts | 244° |
| 2026-05-07 08:18 | 40.32910 | 38.15386 | 34200 ft | 456 kts | 244° |
| 2026-05-07 08:19 | 40.29866 | 38.08126 | 34196 ft | 456 kts | 242° |
| 2026-05-07 08:19 | 40.26786 | 38.00914 | 34199 ft | 456 kts | 243° |
| 2026-05-07 08:20 | 40.23677 | 37.93641 | 34209 ft | 458 kts | 243° |
| 2026-05-07 08:20 | 40.20598 | 37.86428 | 34194 ft | 457 kts | 243° |
| 2026-05-07 08:21 | 40.17491 | 37.79137 | 34190 ft | 457 kts | 243° |
| 2026-05-07 08:21 | 40.14433 | 37.71938 | 34184 ft | 457 kts | 243° |
| 2026-05-07 08:22 | 40.11351 | 37.64688 | 34194 ft | 456 kts | 243° |
| 2026-05-07 08:22 | 40.08285 | 37.57461 | 34194 ft | 456 kts | 244° |
| 2026-05-07 08:23 | 40.05214 | 37.50294 | 34190 ft | 456 kts | 243° |
| 2026-05-07 08:23 | 40.02081 | 37.43050 | 34173 ft | 458 kts | 243° |
| 2026-05-07 08:24 | 39.98983 | 37.35876 | 34182 ft | 458 kts | 243° |
| 2026-05-07 08:24 | 39.95848 | 37.28626 | 34188 ft | 458 kts | 243° |
| 2026-05-07 08:25 | 39.92730 | 37.21407 | 34195 ft | 457 kts | 243° |
| 2026-05-07 08:25 | 39.89637 | 37.14241 | 34194 ft | 457 kts | 243° |
| 2026-05-07 08:26 | 39.84964 | 37.03398 | 34192 ft | 459 kts | 244° |
| 2026-05-07 08:26 | 39.81865 | 36.96183 | 34191 ft | 459 kts | 244° |
| 2026-05-07 08:27 | 39.78587 | 36.89054 | 34150 ft | 464 kts | 234° |
| 2026-05-07 08:27 | 39.74250 | 36.82882 | 34188 ft | 465 kts | 230° |
| 2026-05-07 08:28 | 39.69823 | 36.76826 | 34207 ft | 464 kts | 230° |
| 2026-05-07 08:28 | 39.65374 | 36.70738 | 34199 ft | 463 kts | 230° |
| 2026-05-07 08:29 | 39.60957 | 36.64689 | 34180 ft | 463 kts | 230° |
| 2026-05-07 08:29 | 39.56553 | 36.58640 | 34174 ft | 463 kts | 230° |
| 2026-05-07 08:30 | 39.52151 | 36.52599 | 34176 ft | 463 kts | 230° |
| 2026-05-07 08:30 | 39.47727 | 36.46557 | 34160 ft | 463 kts | 230° |
| 2026-05-07 08:31 | 39.43289 | 36.40555 | 34172 ft | 463 kts | 230° |
| 2026-05-07 08:31 | 39.38823 | 36.34539 | 34168 ft | 463 kts | 229° |
| 2026-05-07 08:32 | 39.34384 | 36.28552 | 34176 ft | 463 kts | 230° |
| 2026-05-07 08:32 | 39.29938 | 36.22554 | 34175 ft | 462 kts | 230° |
| 2026-05-07 08:33 | 39.25496 | 36.16551 | 34187 ft | 462 kts | 230° |
| 2026-05-07 08:33 | 39.21085 | 36.10592 | 34181 ft | 463 kts | 230° |
| 2026-05-07 08:34 | 39.16651 | 36.04597 | 34173 ft | 463 kts | 230° |
| 2026-05-07 08:34 | 39.12233 | 35.98569 | 34146 ft | 459 kts | 238° |
| 2026-05-07 08:35 | 39.09197 | 35.91478 | 34202 ft | 456 kts | 247° |
| 2026-05-07 08:35 | 39.06341 | 35.84228 | 34196 ft | 453 kts | 247° |
| 2026-05-07 08:36 | 39.03499 | 35.77017 | 34188 ft | 454 kts | 248° |
| 2026-05-07 08:36 | 39.00644 | 35.69794 | 34176 ft | 454 kts | 248° |
| 2026-05-07 08:37 | 38.97805 | 35.62616 | 34183 ft | 453 kts | 248° |
| 2026-05-07 08:37 | 38.94956 | 35.55444 | 34194 ft | 453 kts | 248° |
| 2026-05-07 08:38 | 38.92093 | 35.48251 | 34202 ft | 452 kts | 248° |
| 2026-05-07 08:38 | 38.89233 | 35.41078 | 34194 ft | 452 kts | 248° |
| 2026-05-07 08:39 | 38.86843 | 35.35083 | 34203 ft | 451 kts | 248° |
| 2026-05-07 08:39 | 38.84793 | 35.29967 | 34203 ft | 453 kts | 248° |
| 2026-05-07 08:40 | 38.81925 | 35.22815 | 34207 ft | 453 kts | 248° |
| 2026-05-07 08:40 | 38.79037 | 35.15618 | 34201 ft | 454 kts | 248° |
| 2026-05-07 08:41 | 38.76160 | 35.08475 | 34205 ft | 452 kts | 248° |
| 2026-05-07 08:41 | 38.73286 | 35.01350 | 34201 ft | 452 kts | 248° |
| 2026-05-07 08:42 | 38.70401 | 34.94221 | 34219 ft | 453 kts | 248° |
| 2026-05-07 08:42 | 38.67503 | 34.87055 | 34216 ft | 452 kts | 248° |
| 2026-05-07 08:43 | 38.64613 | 34.79931 | 34212 ft | 451 kts | 248° |
| 2026-05-07 08:43 | 38.61739 | 34.72843 | 34214 ft | 452 kts | 248° |
| 2026-05-07 08:44 | 38.58847 | 34.65757 | 34214 ft | 451 kts | 248° |
| 2026-05-07 08:44 | 38.55941 | 34.58641 | 34188 ft | 451 kts | 248° |
| 2026-05-07 08:45 | 38.53045 | 34.51576 | 34209 ft | 452 kts | 248° |
| 2026-05-07 08:45 | 38.50134 | 34.44472 | 34195 ft | 452 kts | 248° |
| 2026-05-07 08:46 | 38.47230 | 34.37397 | 34203 ft | 453 kts | 248° |
| 2026-05-07 08:46 | 38.44282 | 34.30242 | 34209 ft | 453 kts | 248° |
| 2026-05-07 08:47 | 38.41364 | 34.23170 | 34223 ft | 452 kts | 248° |
| 2026-05-07 08:47 | 38.38440 | 34.16096 | 34198 ft | 452 kts | 248° |
| 2026-05-07 08:48 | 38.35514 | 34.09037 | 34196 ft | 452 kts | 248° |
| 2026-05-07 08:48 | 38.32563 | 34.01935 | 34203 ft | 452 kts | 248° |
| 2026-05-07 08:49 | 38.29634 | 33.94904 | 34190 ft | 452 kts | 248° |
| 2026-05-07 08:49 | 38.26692 | 33.87848 | 34189 ft | 452 kts | 248° |
| 2026-05-07 08:50 | 38.23747 | 33.80807 | 34198 ft | 452 kts | 248° |
| 2026-05-07 08:50 | 38.20808 | 33.73808 | 34193 ft | 451 kts | 248° |
| 2026-05-07 08:51 | 38.17850 | 33.66764 | 34187 ft | 452 kts | 248° |
| 2026-05-07 08:51 | 38.14884 | 33.59709 | 34187 ft | 453 kts | 248° |
| 2026-05-07 08:52 | 38.11919 | 33.52682 | 34198 ft | 452 kts | 248° |
| 2026-05-07 08:52 | 38.08964 | 33.45696 | 34243 ft | 451 kts | 248° |
| 2026-05-07 08:53 | 38.06008 | 33.38721 | 34194 ft | 451 kts | 248° |
| 2026-05-07 08:53 | 38.03037 | 33.31739 | 34179 ft | 451 kts | 247° |
| 2026-05-07 08:54 | 38.00061 | 33.24728 | 34195 ft | 452 kts | 248° |
| 2026-05-07 08:54 | 37.97089 | 33.17742 | 34197 ft | 451 kts | 247° |
| 2026-05-07 08:55 | 37.94108 | 33.10771 | 34201 ft | 452 kts | 248° |
| 2026-05-07 08:55 | 37.91112 | 33.03782 | 34196 ft | 451 kts | 248° |
| 2026-05-07 08:56 | 37.88110 | 32.96794 | 34176 ft | 451 kts | 248° |
| 2026-05-07 08:56 | 37.85126 | 32.89848 | 34198 ft | 451 kts | 248° |
| 2026-05-07 08:57 | 37.82126 | 32.82877 | 34195 ft | 450 kts | 248° |
| 2026-05-07 08:57 | 37.79140 | 32.75951 | 34199 ft | 449 kts | 248° |
| 2026-05-07 08:58 | 37.76147 | 32.69030 | 34193 ft | 450 kts | 248° |
| 2026-05-07 08:58 | 37.73146 | 32.62100 | 34202 ft | 452 kts | 248° |
| 2026-05-07 08:59 | 37.70158 | 32.55214 | 34213 ft | 450 kts | 248° |
| 2026-05-07 08:59 | 37.67133 | 32.48256 | 34224 ft | 452 kts | 248° |
| 2026-05-07 09:00 | 37.64110 | 32.41312 | 34214 ft | 453 kts | 248° |
| 2026-05-07 09:00 | 37.61109 | 32.34435 | 34237 ft | 452 kts | 247° |
| 2026-05-07 09:01 | 37.58070 | 32.27496 | 34233 ft | 452 kts | 247° |
| 2026-05-07 09:01 | 37.55015 | 32.20525 | 34238 ft | 452 kts | 248° |
| 2026-05-07 09:02 | 37.51983 | 32.13616 | 34240 ft | 451 kts | 247° |
| 2026-05-07 09:02 | 37.48968 | 32.06747 | 34254 ft | 450 kts | 247° |
| 2026-05-07 09:03 | 37.45946 | 31.99892 | 34259 ft | 450 kts | 247° |
| 2026-05-07 09:03 | 37.42926 | 31.93044 | 34265 ft | 449 kts | 247° |
| 2026-05-07 09:04 | 37.39908 | 31.86211 | 34251 ft | 450 kts | 247° |
| 2026-05-07 09:04 | 37.36871 | 31.79343 | 34240 ft | 448 kts | 247° |
| 2026-05-07 09:05 | 37.33852 | 31.72534 | 34239 ft | 448 kts | 247° |
| 2026-05-07 09:05 | 37.30798 | 31.65664 | 34229 ft | 449 kts | 247° |
| 2026-05-07 09:06 | 37.27767 | 31.58853 | 34235 ft | 448 kts | 247° |
| 2026-05-07 09:06 | 37.24724 | 31.52026 | 34228 ft | 447 kts | 246° |
| 2026-05-07 09:07 | 37.21683 | 31.45223 | 34213 ft | 448 kts | 246° |
| 2026-05-07 09:07 | 37.18637 | 31.38403 | 34184 ft | 450 kts | 246° |
| 2026-05-07 09:08 | 37.15583 | 31.31596 | 34177 ft | 450 kts | 246° |
| 2026-05-07 09:08 | 37.12516 | 31.24769 | 34171 ft | 449 kts | 246° |
| 2026-05-07 09:09 | 37.09458 | 31.17973 | 34160 ft | 449 kts | 245° |
| 2026-05-07 09:09 | 37.06402 | 31.11172 | 34144 ft | 448 kts | 245° |
| 2026-05-07 09:10 | 37.03344 | 31.04400 | 34130 ft | 447 kts | 245° |
| 2026-05-07 09:10 | 37.00290 | 30.97642 | 34110 ft | 449 kts | 245° |
| 2026-05-07 09:11 | 36.97224 | 30.90856 | 34113 ft | 450 kts | 245° |
| 2026-05-07 09:11 | 36.93292 | 30.84766 | 34077 ft | 466 kts | 219° |
| 2026-05-07 09:12 | 36.90507 | 30.82676 | 34208 ft | 469 kts | 213° |
| 2026-05-07 09:12 | 36.87499 | 30.81013 | 34083 ft | 477 kts | 202° |
| 2026-05-07 09:12 | 36.84210 | 30.80240 | 34207 ft | 483 kts | 187° |
| 2026-05-07 09:12 | 36.80853 | 30.80574 | 34337 ft | 491 kts | 170° |
| 2026-05-07 09:13 | 36.77628 | 30.82031 | 34451 ft | 496 kts | 155° |
| 2026-05-07 09:13 | 36.74589 | 30.84129 | 34639 ft | 497 kts | 152° |
| 2026-05-07 09:13 | 36.71598 | 30.86264 | 34750 ft | 498 kts | 151° |
| 2026-05-07 09:13 | 36.68619 | 30.88416 | 34852 ft | 498 kts | 151° |
| 2026-05-07 09:14 | 36.65597 | 30.90600 | 34962 ft | 497 kts | 151° |
| 2026-05-07 09:14 | 36.62616 | 30.92754 | 35072 ft | 497 kts | 152° |
| 2026-05-07 09:14 | 36.56644 | 30.97061 | 35101 ft | 498 kts | 152° |
| 2026-05-07 09:15 | 36.50647 | 31.01370 | 35111 ft | 495 kts | 152° |
| 2026-05-07 09:15 | 36.44677 | 31.05658 | 35114 ft | 494 kts | 152° |
| 2026-05-07 09:16 | 36.38753 | 31.09906 | 35126 ft | 495 kts | 152° |
| 2026-05-07 09:16 | 36.32778 | 31.14178 | 35120 ft | 496 kts | 152° |
| 2026-05-07 09:17 | 36.26801 | 31.18446 | 35117 ft | 496 kts | 152° |
| 2026-05-07 09:17 | 36.20812 | 31.22722 | 35126 ft | 495 kts | 152° |
| 2026-05-07 09:18 | 36.14842 | 31.26974 | 35130 ft | 495 kts | 152° |
| 2026-05-07 09:18 | 36.08890 | 31.31205 | 35130 ft | 494 kts | 152° |
| 2026-05-07 09:19 | 36.02937 | 31.35431 | 35138 ft | 495 kts | 152° |
| 2026-05-07 09:19 | 35.96956 | 31.39664 | 35139 ft | 495 kts | 152° |
| 2026-05-07 09:20 | 35.90996 | 31.43875 | 35135 ft | 495 kts | 152° |
| 2026-05-07 09:20 | 35.85009 | 31.48101 | 35131 ft | 495 kts | 152° |
| 2026-05-07 09:21 | 35.79046 | 31.52305 | 35137 ft | 494 kts | 152° |
| 2026-05-07 09:21 | 35.73090 | 31.56498 | 35138 ft | 495 kts | 152° |
| 2026-05-07 09:22 | 35.67133 | 31.60679 | 35139 ft | 494 kts | 152° |
| 2026-05-07 09:22 | 35.61138 | 31.64882 | 35136 ft | 494 kts | 152° |
| 2026-05-07 09:23 | 35.55161 | 31.69071 | 35129 ft | 494 kts | 153° |
| 2026-05-07 09:23 | 35.49182 | 31.73256 | 35133 ft | 494 kts | 153° |
| 2026-05-07 09:24 | 35.43247 | 31.77399 | 35136 ft | 493 kts | 153° |
| 2026-05-07 09:24 | 35.37274 | 31.81562 | 35138 ft | 493 kts | 153° |
| 2026-05-07 09:25 | 35.31307 | 31.85713 | 35139 ft | 493 kts | 153° |
| 2026-05-07 09:25 | 35.25378 | 31.89831 | 35136 ft | 492 kts | 153° |
| 2026-05-07 09:26 | 35.19438 | 31.93950 | 35133 ft | 491 kts | 153° |
| 2026-05-07 09:26 | 35.13480 | 31.98078 | 35132 ft | 491 kts | 153° |
| 2026-05-07 09:27 | 35.07536 | 32.02190 | 35142 ft | 491 kts | 153° |
| 2026-05-07 09:28 | 34.98633 | 32.08334 | 35145 ft | 491 kts | 153° |
| 2026-05-07 09:28 | 34.92672 | 32.12449 | 35148 ft | 491 kts | 153° |
| 2026-05-07 09:29 | 34.86721 | 32.16548 | 35142 ft | 490 kts | 153° |
| 2026-05-07 09:29 | 34.80786 | 32.20630 | 35141 ft | 490 kts | 153° |
| 2026-05-07 09:30 | 34.74888 | 32.24674 | 35143 ft | 489 kts | 153° |
| 2026-05-07 09:30 | 34.68925 | 32.28761 | 35140 ft | 490 kts | 153° |
| 2026-05-07 09:31 | 34.63021 | 32.32800 | 35147 ft | 490 kts | 153° |
| 2026-05-07 09:31 | 34.57090 | 32.36853 | 35147 ft | 489 kts | 153° |
| 2026-05-07 09:32 | 34.51163 | 32.40901 | 35147 ft | 489 kts | 153° |
| 2026-05-07 09:32 | 34.45243 | 32.44944 | 35145 ft | 489 kts | 153° |
| 2026-05-07 09:33 | 34.39301 | 32.48995 | 35143 ft | 489 kts | 153° |
| 2026-05-07 09:33 | 34.33404 | 32.53005 | 35143 ft | 489 kts | 153° |
| 2026-05-07 09:34 | 34.27452 | 32.57049 | 35141 ft | 488 kts | 153° |
| 2026-05-07 09:34 | 34.21516 | 32.61087 | 35141 ft | 488 kts | 153° |
| 2026-05-07 09:35 | 34.15593 | 32.65115 | 35143 ft | 487 kts | 154° |
| 2026-05-07 09:35 | 34.09721 | 32.69123 | 35138 ft | 487 kts | 153° |
| 2026-05-07 09:36 | 34.03891 | 32.73335 | 35137 ft | 487 kts | 151° |
| 2026-05-07 09:36 | 33.98120 | 32.77611 | 35134 ft | 488 kts | 152° |
| 2026-05-07 09:37 | 33.92353 | 32.81844 | 35134 ft | 487 kts | 152° |
| 2026-05-07 09:37 | 33.86550 | 32.86103 | 35130 ft | 486 kts | 152° |
| 2026-05-07 09:38 | 33.80760 | 32.90344 | 35130 ft | 486 kts | 152° |
| 2026-05-07 09:38 | 33.74983 | 32.94568 | 35125 ft | 486 kts | 151° |
| 2026-05-07 09:39 | 33.69240 | 32.98777 | 35125 ft | 485 kts | 152° |
| 2026-05-07 09:39 | 33.63469 | 33.03006 | 35125 ft | 486 kts | 151° |
| 2026-05-07 09:40 | 33.57702 | 33.07238 | 35126 ft | 486 kts | 151° |
| 2026-05-07 09:40 | 33.51946 | 33.11458 | 35129 ft | 485 kts | 151° |
| 2026-05-07 09:41 | 33.46206 | 33.15667 | 35131 ft | 484 kts | 151° |
| 2026-05-07 09:41 | 33.40464 | 33.19883 | 35127 ft | 484 kts | 151° |
| 2026-05-07 09:42 | 33.34747 | 33.24081 | 35123 ft | 485 kts | 151° |
| 2026-05-07 09:42 | 33.28983 | 33.28312 | 35127 ft | 485 kts | 151° |
| 2026-05-07 09:43 | 33.23328 | 33.32468 | 34754 ft | 471 kts | 151° |
| 2026-05-07 09:43 | 33.20563 | 33.34501 | 34353 ft | 460 kts | 151° |
| 2026-05-07 09:43 | 33.17874 | 33.36475 | 33926 ft | 450 kts | 151° |
| 2026-05-07 09:43 | 33.15247 | 33.38403 | 33461 ft | 441 kts | 151° |
| 2026-05-07 09:44 | 33.12642 | 33.40315 | 32983 ft | 433 kts | 151° |
| 2026-05-07 09:44 | 33.10113 | 33.42174 | 32517 ft | 426 kts | 151° |
| 2026-05-07 09:44 | 33.07602 | 33.44020 | 32059 ft | 423 kts | 151° |
| 2026-05-07 09:44 | 33.05078 | 33.45873 | 31618 ft | 424 kts | 151° |
| 2026-05-07 09:45 | 33.02560 | 33.47721 | 31195 ft | 427 kts | 151° |
| 2026-05-07 09:45 | 33.00029 | 33.49585 | 30779 ft | 431 kts | 151° |
| 2026-05-07 09:45 | 32.97504 | 33.51442 | 30360 ft | 432 kts | 151° |
| 2026-05-07 09:45 | 32.94914 | 33.53345 | 29943 ft | 434 kts | 151° |
| 2026-05-07 09:46 | 32.92370 | 33.55213 | 29537 ft | 434 kts | 151° |
| 2026-05-07 09:46 | 32.89809 | 33.57093 | 29130 ft | 435 kts | 151° |
| 2026-05-07 09:46 | 32.87228 | 33.58992 | 28720 ft | 436 kts | 151° |
| 2026-05-07 09:46 | 32.84631 | 33.60901 | 28311 ft | 437 kts | 151° |
| 2026-05-07 09:47 | 32.82147 | 33.62975 | 27861 ft | 442 kts | 140° |
| 2026-05-07 09:47 | 32.79948 | 33.65565 | 27464 ft | 443 kts | 136° |
| 2026-05-07 09:47 | 32.77799 | 33.68204 | 27069 ft | 444 kts | 135° |
| 2026-05-07 09:47 | 32.75650 | 33.70870 | 26649 ft | 445 kts | 135° |
| 2026-05-07 09:48 | 32.73513 | 33.73515 | 26234 ft | 446 kts | 135° |
| 2026-05-07 09:48 | 32.71371 | 33.76156 | 25822 ft | 447 kts | 135° |
| 2026-05-07 09:48 | 32.69225 | 33.78803 | 25419 ft | 447 kts | 135° |
| 2026-05-07 09:48 | 32.67070 | 33.81456 | 25055 ft | 449 kts | 135° |
| 2026-05-07 09:49 | 32.64911 | 33.84114 | 24713 ft | 449 kts | 135° |
| 2026-05-07 09:49 | 32.62732 | 33.86800 | 24360 ft | 450 kts | 135° |
| 2026-05-07 09:49 | 32.60563 | 33.89475 | 24005 ft | 452 kts | 135° |
| 2026-05-07 09:49 | 32.58390 | 33.92148 | 23654 ft | 452 kts | 135° |
| 2026-05-07 09:50 | 32.56196 | 33.94849 | 23297 ft | 454 kts | 134° |
| 2026-05-07 09:50 | 32.54017 | 33.97559 | 22944 ft | 454 kts | 134° |
| 2026-05-07 09:50 | 32.51863 | 34.00254 | 22598 ft | 454 kts | 134° |
| 2026-05-07 09:50 | 32.49691 | 34.02968 | 22249 ft | 455 kts | 134° |
| 2026-05-07 09:51 | 32.47516 | 34.05684 | 21900 ft | 455 kts | 134° |
| 2026-05-07 09:51 | 32.45350 | 34.08383 | 21533 ft | 444 kts | 134° |
| 2026-05-07 09:51 | 32.43293 | 34.10953 | 21107 ft | 427 kts | 133° |
| 2026-05-07 09:51 | 32.41507 | 34.13683 | 20666 ft | 414 kts | 123° |
| 2026-05-07 09:52 | 32.39922 | 34.16489 | 20277 ft | 401 kts | 123° |
| 2026-05-07 09:52 | 32.38419 | 34.19163 | 19853 ft | 390 kts | 123° |
| 2026-05-07 09:52 | 32.36936 | 34.21794 | 19426 ft | 382 kts | 123° |
| 2026-05-07 09:52 | 32.35455 | 34.24407 | 19015 ft | 378 kts | 123° |
| 2026-05-07 09:53 | 32.33998 | 34.26958 | 18645 ft | 377 kts | 123° |
| 2026-05-07 09:53 | 32.32532 | 34.29519 | 18267 ft | 377 kts | 124° |
| 2026-05-07 09:53 | 32.31069 | 34.32069 | 17905 ft | 376 kts | 124° |
| 2026-05-07 09:53 | 32.29593 | 34.34631 | 17529 ft | 375 kts | 124° |
| 2026-05-07 09:54 | 32.28144 | 34.37150 | 17052 ft | 371 kts | 124° |
| 2026-05-07 09:54 | 32.26713 | 34.39632 | 16564 ft | 365 kts | 124° |
| 2026-05-07 09:54 | 32.25286 | 34.42109 | 16034 ft | 361 kts | 124° |
| 2026-05-07 09:54 | 32.23895 | 34.44524 | 15546 ft | 356 kts | 124° |
| 2026-05-07 09:55 | 32.22503 | 34.46933 | 15050 ft | 352 kts | 124° |
| 2026-05-07 09:55 | 32.21132 | 34.49295 | 14549 ft | 348 kts | 124° |
| 2026-05-07 09:55 | 32.19785 | 34.51618 | 14061 ft | 345 kts | 124° |
| 2026-05-07 09:55 | 32.18444 | 34.53923 | 13560 ft | 341 kts | 124° |
| 2026-05-07 09:56 | 32.17199 | 34.56314 | 13033 ft | 339 kts | 114° |
| 2026-05-07 09:56 | 32.16612 | 34.58976 | 12485 ft | 337 kts | 96° |
| 2026-05-07 09:56 | 32.16393 | 34.61692 | 12012 ft | 333 kts | 94° |
| 2026-05-07 09:56 | 32.16235 | 34.64384 | 11537 ft | 330 kts | 92° |
| 2026-05-07 09:57 | 32.16102 | 34.67059 | 11053 ft | 327 kts | 93° |
| 2026-05-07 09:57 | 32.15977 | 34.69739 | 10567 ft | 325 kts | 93° |
| 2026-05-07 09:57 | 32.15858 | 34.72369 | 10064 ft | 322 kts | 93° |
| 2026-05-07 09:57 | 32.15744 | 34.75005 | 9584 ft | 315 kts | 93° |
| 2026-05-07 09:58 | 32.15332 | 34.77462 | 8989 ft | 305 kts | 112° |
| 2026-05-07 09:58 | 32.14483 | 34.79704 | 8494 ft | 294 kts | 115° |
| 2026-05-07 09:58 | 32.13631 | 34.81837 | 7945 ft | 282 kts | 115° |
| 2026-05-07 09:58 | 32.12820 | 34.83843 | 7404 ft | 267 kts | 114° |
| 2026-05-07 09:59 | 32.12049 | 34.85770 | 6869 ft | 256 kts | 115° |
| 2026-05-07 09:59 | 32.11309 | 34.87638 | 6341 ft | 247 kts | 114° |
| 2026-05-07 09:59 | 32.10581 | 34.89462 | 6037 ft | 242 kts | 114° |
| 2026-05-07 09:59 | 32.09890 | 34.91208 | 5982 ft | 232 kts | 114° |
| 2026-05-07 10:00 | 32.09230 | 34.92883 | 6048 ft | 212 kts | 114° |
| 2026-05-07 10:00 | 32.08606 | 34.94467 | 5990 ft | 217 kts | 114° |
| 2026-05-07 10:00 | 32.07976 | 34.96064 | 6009 ft | 217 kts | 115° |
| 2026-05-07 10:00 | 32.07338 | 34.97679 | 6002 ft | 218 kts | 115° |
| 2026-05-07 10:01 | 32.06696 | 34.99295 | 6001 ft | 218 kts | 115° |
| 2026-05-07 10:01 | 32.06045 | 35.00923 | 5999 ft | 218 kts | 115° |
| 2026-05-07 10:01 | 32.05407 | 35.02523 | 6001 ft | 216 kts | 115° |
| 2026-05-07 10:01 | 32.04772 | 35.04120 | 6000 ft | 217 kts | 114° |
| 2026-05-07 10:02 | 32.04129 | 35.05736 | 6014 ft | 217 kts | 114° |
| 2026-05-07 10:02 | 32.03486 | 35.07354 | 5991 ft | 218 kts | 114° |
| 2026-05-07 10:02 | 32.02841 | 35.08975 | 5753 ft | 220 kts | 114° |
| 2026-05-07 10:02 | 32.02193 | 35.10601 | 5483 ft | 215 kts | 114° |
| 2026-05-07 10:03 | 32.01572 | 35.12170 | 5223 ft | 210 kts | 113° |
| 2026-05-07 10:03 | 32.00970 | 35.13681 | 5069 ft | 201 kts | 113° |
| 2026-05-07 10:03 | 32.00270 | 35.15119 | 4767 ft | 202 kts | 132° |
| 2026-05-07 10:03 | 31.99148 | 35.16051 | 4517 ft | 198 kts | 155° |
| 2026-05-07 10:04 | 31.97854 | 35.16418 | 4325 ft | 186 kts | 174° |
| 2026-05-07 10:04 | 31.96563 | 35.16451 | 4030 ft | 182 kts | 179° |
| 2026-05-07 10:04 | 31.95357 | 35.16431 | 3754 ft | 178 kts | 180° |
| 2026-05-07 10:04 | 31.94164 | 35.16342 | 3696 ft | 169 kts | 191° |
| 2026-05-07 10:05 | 31.93009 | 35.15973 | 3736 ft | 172 kts | 196° |
| 2026-05-07 10:05 | 31.91842 | 35.15565 | 3730 ft | 175 kts | 196° |
| 2026-05-07 10:05 | 31.90700 | 35.15036 | 3692 ft | 178 kts | 216° |
| 2026-05-07 10:05 | 31.89914 | 35.13946 | 3710 ft | 174 kts | 244° |
| 2026-05-07 10:06 | 31.89596 | 35.12595 | 3700 ft | 172 kts | 268° |
| 2026-05-07 10:06 | 31.89590 | 35.11190 | 3709 ft | 171 kts | 274° |
| 2026-05-07 10:06 | 31.89629 | 35.09786 | 3700 ft | 172 kts | 274° |
| 2026-05-07 10:06 | 31.89781 | 35.08454 | 3630 ft | 156 kts | 296° |
| 2026-05-07 10:07 | 31.90329 | 35.07455 | 3690 ft | 139 kts | 307° |
| 2026-05-07 10:07 | 31.90875 | 35.06507 | 3620 ft | 142 kts | 307° |
| 2026-05-07 10:07 | 31.91429 | 35.05549 | 3429 ft | 140 kts | 307° |
| 2026-05-07 10:07 | 31.91973 | 35.04602 | 3236 ft | 140 kts | 307° |
| 2026-05-07 10:08 | 31.92493 | 35.03626 | 3046 ft | 139 kts | 305° |
| 2026-05-07 10:08 | 31.93002 | 35.02657 | 2856 ft | 138 kts | 304° |
| 2026-05-07 10:08 | 31.93507 | 35.01694 | 2663 ft | 138 kts | 305° |
| 2026-05-07 10:08 | 31.94013 | 35.00742 | 2470 ft | 138 kts | 305° |
| 2026-05-07 10:09 | 31.94515 | 34.99786 | 2280 ft | 136 kts | 305° |
| 2026-05-07 10:09 | 31.95007 | 34.98853 | 2093 ft | 136 kts | 305° |
| 2026-05-07 10:09 | 31.95506 | 34.97910 | 1911 ft | 134 kts | 305° |
| 2026-05-07 10:09 | 31.95997 | 34.96976 | 1710 ft | 134 kts | 304° |
| 2026-05-07 10:10 | 31.96465 | 34.96034 | 1505 ft | 133 kts | 303° |
| 2026-05-07 10:10 | 31.96934 | 34.95122 | 1349 ft | 130 kts | 305° |
| 2026-05-07 10:10 | 31.97460 | 34.94252 | 1132 ft | 130 kts | 307° |
| 2026-05-07 10:10 | 31.97969 | 34.93358 | 973 ft | 133 kts | 303° |
| 2026-05-07 10:11 | 31.98419 | 34.92429 | 765 ft | 129 kts | 301° |
| 2026-05-07 10:11 | 31.98890 | 34.91521 | 601 ft | 129 kts | 304° |
| 2026-05-07 10:11 | 31.99372 | 34.90626 | 434 ft | 128 kts | 302° |
| 2026-05-07 10:11 | 31.99826 | 34.89745 | 251 ft | 125 kts | 301° |
| 2026-05-07 10:12 | 32.00278 | 34.88897 | 149 ft | 108 kts | 302° |
| 2026-05-07 10:12 | 32.00557 | 34.88355 | 148 ft | 49 kts | 300° |
| 2026-05-07 10:12 | 32.00676 | 34.88129 | 148 ft | 19 kts | 301° |
| 2026-05-07 10:12 | 32.00711 | 34.88044 | 148 ft | 9 kts | 280° |
| 2026-05-07 10:13 | 32.00681 | 34.87982 | 148 ft | 9 kts | 211° |
| 2026-05-07 10:13 | 32.00634 | 34.87949 | 148 ft | 0 kts | 211° |
| 2026-05-07 10:13 | 32.00620 | 34.87939 | 148 ft | 3 kts | 212° |
| 2026-05-07 10:13 | 32.00615 | 34.87936 | 148 ft | 0 kts | 211° |
| 2026-05-07 10:15 | 32.00612 | 34.87933 | 148 ft | 3 kts | 212° |
| 2026-05-07 10:15 | 32.00563 | 34.87933 | 148 ft | 12 kts | 148° |
| 2026-05-07 10:15 | 32.00467 | 34.87932 | 148 ft | 17 kts | 210° |
| 2026-05-07 10:16 | 32.00351 | 34.87848 | 148 ft | 19 kts | 210° |
| 2026-05-07 10:16 | 32.00243 | 34.87770 | 148 ft | 17 kts | 211° |
| 2026-05-07 10:16 | 32.00171 | 34.87739 | 148 ft | 5 kts | 146° |
| 2026-05-07 10:16 | 32.00167 | 34.87747 | 148 ft | 0 kts | 108° |
| 2026-05-07 10:17 | 32.00161 | 34.87759 | 148 ft | 3 kts | 117° |
| 2026-05-07 10:17 | 32.00145 | 34.87796 | 148 ft | 2 kts | 119° |
| 2026-05-07 10:17 | 32.00144 | 34.87799 | 148 ft | 0 kts | 118° |